CMB860 Details

Departure: Ramstein Air Force Base (ETAR)
Arrival: Keflavík International Airport (BIKF)
Route: RUDOT LNO UN852 SPY L602 BERGI UM90 LONAM N610 RATSU ALDAN ASRUN ASRUN1H
Notes: USTRANSCOM CONTRACT FLIGHT


Current Weather Information
ETAR 232156Z AUTO 00000KT 9999 CLR 09/08 A3003 RMK AO2 SLP171 T00880082 $
BIKF 232230Z 27008KT CAVOK 08/07 Q1020